createdAt,value
2022-12-23T00:01:25.545Z,1.79
2022-12-23T00:16:25.332Z,1.89
2022-12-23T00:31:25.333Z,1.80
2022-12-23T00:46:25.302Z,1.80
2022-12-23T01:01:25.315Z,2.23
2022-12-23T01:16:25.361Z,2.30
2022-12-23T01:31:25.333Z,3.45
2022-12-23T01:46:25.418Z,3.73
2022-12-23T02:01:25.344Z,3.88
2022-12-23T02:16:25.295Z,3.74
2022-12-23T02:31:25.315Z,2.94
2022-12-23T02:46:25.464Z,3.36
2022-12-23T03:01:25.341Z,3.59
2022-12-23T03:16:25.382Z,4.02
2022-12-23T03:31:25.392Z,4.10
2022-12-23T03:46:25.404Z,3.65
2022-12-23T04:01:25.370Z,2.79
2022-12-23T04:16:25.497Z,2.87
2022-12-23T04:31:25.499Z,3.47
2022-12-23T04:46:25.385Z,3.16
2022-12-23T05:01:25.487Z,3.65
2022-12-23T05:16:25.379Z,3.52
2022-12-23T05:31:25.408Z,3.50
2022-12-23T05:46:27.135Z,3.69
2022-12-23T06:01:25.455Z,2.71
2022-12-23T06:16:25.406Z,2.87
2022-12-23T06:31:25.373Z,2.78
2022-12-23T06:46:25.486Z,3.16
2022-12-23T07:01:25.632Z,3.00
2022-12-23T07:16:25.545Z,2.92
2022-12-23T07:31:25.595Z,2.63
2022-12-23T07:46:25.532Z,2.98
2022-12-23T08:01:25.458Z,2.36
2022-12-23T08:16:25.525Z,2.11
2022-12-23T08:31:25.479Z,1.79
2022-12-23T08:46:25.723Z,1.42
2022-12-23T09:01:25.721Z,1.27
2022-12-23T09:16:25.538Z,0.87
2022-12-23T09:31:27.955Z,1.08
2022-12-23T09:46:25.514Z,0.98
2022-12-23T10:01:25.609Z,1.33
2022-12-23T10:16:25.585Z,0.70
2022-12-23T10:31:40.269Z,0.70
2022-12-23T10:46:25.491Z,0.98
2022-12-23T11:01:27.450Z,0.83
2022-12-23T11:16:25.564Z,0.95
2022-12-23T11:31:25.612Z,1.24
2022-12-23T11:46:25.631Z,0.89
2022-12-23T12:01:25.492Z,1.09
2022-12-23T12:16:25.476Z,1.55
2022-12-23T12:31:25.550Z,0.50
2022-12-23T12:46:25.525Z,0.89
2022-12-23T13:01:25.564Z,1.46
2022-12-23T13:16:25.523Z,1.26
2022-12-23T13:31:25.589Z,1.54
2022-12-23T13:46:25.649Z,1.11
2022-12-23T14:01:25.561Z,1.46
2022-12-23T14:16:25.582Z,1.83
2022-12-23T14:31:25.646Z,1.34
2022-12-23T14:46:25.634Z,1.43
2022-12-23T15:01:25.549Z,1.43
2022-12-23T15:16:25.910Z,1.10
2022-12-23T15:31:25.557Z,1.27
2022-12-23T15:46:30.056Z,1.88
2022-12-23T16:01:25.593Z,1.91
2022-12-23T16:16:26.645Z,3.15
2022-12-23T16:31:25.683Z,3.00
2022-12-23T16:46:25.851Z,2.00
2022-12-23T17:01:25.954Z,3.53
2022-12-23T17:16:25.588Z,5.37
2022-12-23T17:31:27.259Z,5.26
2022-12-23T17:46:25.898Z,6.71
2022-12-23T18:01:25.997Z,5.78
2022-12-23T18:16:25.604Z,5.47
2022-12-23T18:31:25.709Z,6.82
2022-12-23T18:46:25.685Z,6.16
2022-12-23T19:01:25.642Z,5.83
2022-12-23T19:16:25.701Z,4.92
2022-12-23T19:31:25.701Z,4.92
2022-12-23T19:46:25.780Z,4.85
2022-12-23T20:01:25.663Z,4.35
2022-12-23T20:16:25.822Z,4.95
2022-12-23T20:31:25.685Z,4.94
2022-12-23T20:46:25.677Z,5.21
2022-12-23T21:01:25.647Z,6.51
2022-12-23T21:16:25.732Z,5.50
2022-12-23T21:31:25.791Z,5.68
2022-12-23T21:46:26.839Z,5.81
2022-12-23T22:01:25.990Z,6.58
2022-12-23T22:16:25.785Z,8.18
2022-12-23T22:31:25.714Z,7.58
2022-12-23T22:46:26.003Z,7.00
2022-12-23T23:01:25.927Z,7.55
2022-12-23T23:16:26.064Z,7.09
2022-12-23T23:31:43.369Z,6.26
2022-12-23T23:46:26.178Z,5.71
